Time,TemperatureF,DewpointF,PressureIn,WindDirection,WindDirectionDegrees,WindSpeedMPH,WindSpeedGustMPH,Humidity,HourlyPrecipIn,Conditions,Clouds,dailyrainin,SoftwareType,DateUTC
2013-03-04 00:00:00,55.2,44.0,30.17,WNW,301,4.0,4.0,66,0.00,RA,,0.00,WeatherDisplay:10.37,2013-03-04 05:00:00,
2013-03-04 00:05:00,55.1,43.9,30.17,NW,304,5.8,5.8,66,0.00,RA,,0.00,WeatherDisplay:10.37,2013-03-04 05:05:00,
2013-03-04 00:09:00,55.0,43.4,30.17,NW,309,5.0,5.0,65,0.00,RA,,0.00,WeatherDisplay:10.37,2013-03-04 05:09:00,
2013-03-04 00:14:00,54.9,42.9,30.17,WNW,284,8.1,8.1,64,0.00,CLR,,0.00,WeatherDisplay:10.37,2013-03-04 05:14:00,
2013-03-04 00:19:00,54.5,43.8,30.17,NNE,15,4.6,4.6,67,0.00,CLR,,0.00,WeatherDisplay:10.37,2013-03-04 05:19:00,
2013-03-04 00:24:00,52.6,44.2,30.17,NNE,26,6.9,6.9,73,0.00,CLR,,0.00,WeatherDisplay:10.37,2013-03-04 05:24:00,
2013-03-04 00:29:00,51.3,44.0,30.17,NE,37,4.0,4.0,76,0.00,CLR,,0.00,WeatherDisplay:10.37,2013-03-04 05:29:00,
2013-03-04 00:34:00,50.4,43.8,30.17,NE,51,5.8,5.8,78,0.00,CLR,,0.00,WeatherDisplay:10.37,2013-03-04 05:34:00,
2013-03-04 00:39:00,49.8,43.9,30.17,NW,326,3.5,3.5,80,0.00,CLR,,0.00,WeatherDisplay:10.37,2013-03-04 05:39:00,
2013-03-04 00:44:00,49.4,43.8,30.17,North,7,3.5,3.5,81,0.00,CLR,,0.00,WeatherDisplay:10.37,2013-03-04 05:44:00,
2013-03-04 00:50:00,49.1,43.8,30.18,North,356,4.6,4.6,82,0.00,CLR,,0.00,WeatherDisplay:10.37,2013-03-04 05:50:00,
2013-03-04 00:55:00,48.7,43.8,30.18,NNE,25,6.9,6.9,83,0.00,CLR,,0.00,WeatherDisplay:10.37,2013-03-04 05:55:00,
2013-03-04 01:00:00,48.4,43.5,30.17,NNW,328,5.8,5.8,83,0.00,CLR,,0.00,WeatherDisplay:10.37,2013-03-04 06:00:00,
2013-03-04 01:05:00,48.2,43.3,30.17,NNE,29,6.0,6.0,83,0.00,CLR,,0.00,WeatherDisplay:10.37,2013-03-04 06:05:00,
2013-03-04 01:11:00,48.0,43.1,30.17,North,360,3.5,3.5,83,0.00,CLR,,0.00,WeatherDisplay:10.37,2013-03-04 06:11:00,
2013-03-04 01:16:00,47.8,43.2,30.17,NNW,347,3.5,3.5,84,0.00,CLR,,0.00,WeatherDisplay:10.37,2013-03-04 06:16:00,
2013-03-04 01:21:00,47.5,42.9,30.17,NNE,33,3.5,3.5,84,0.00,CLR,,0.00,WeatherDisplay:10.37,2013-03-04 06:21:00,
2013-03-04 01:26:00,47.2,42.6,30.17,NNE,32,5.0,5.0,84,0.00,CLR,,0.00,WeatherDisplay:10.37,2013-03-04 06:26:00,
2013-03-04 01:31:00,47.0,42.4,30.17,NNE,16,4.6,4.6,84,0.00,CLR,,0.00,WeatherDisplay:10.37,2013-03-04 06:31:00,
2013-03-04 01:36:00,46.8,42.2,30.17,North,8,4.6,4.6,84,0.00,CLR,,0.00,WeatherDisplay:10.37,2013-03-04 06:36:00,
2013-03-04 01:41:00,46.6,41.7,30.18,North,356,5.8,5.8,83,0.00,CLR,,0.00,WeatherDisplay:10.37,2013-03-04 06:41:00,
2013-03-04 01:46:00,46.4,41.5,30.17,NNE,19,3.5,3.9,83,0.00,CLR,,0.00,WeatherDisplay:10.37,2013-03-04 06:46:00,
2013-03-04 01:51:00,46.3,41.4,30.17,NNE,15,3.5,3.5,83,0.00,CLR,,0.00,WeatherDisplay:10.37,2013-03-04 06:51:00,
2013-03-04 01:57:00,46.1,41.2,30.17,NNE,25,5.8,5.8,83,0.00,CLR,,0.00,WeatherDisplay:10.37,2013-03-04 06:57:00,
2013-03-04 02:02:00,45.9,41.0,30.17,North,356,6.9,6.9,83,0.00,CLR,,0.00,WeatherDisplay:10.37,2013-03-04 07:02:00,
2013-03-04 02:07:00,45.7,40.8,30.17,NNE,12,4.6,4.6,83,0.00,CLR,,0.00,WeatherDisplay:10.37,2013-03-04 07:07:00,
2013-03-04 02:12:00,45.6,40.7,30.17,NNE,18,3.5,3.5,83,0.00,CLR,,0.00,WeatherDisplay:10.37,2013-03-04 07:12:00,
2013-03-04 02:18:00,45.4,40.8,30.17,NE,43,5.8,5.8,84,0.00,CLR,,0.00,WeatherDisplay:10.37,2013-03-04 07:18:00,
2013-03-04 02:23:00,45.1,40.6,30.17,North,5,5.8,5.8,84,0.00,CLR,,0.00,WeatherDisplay:10.37,2013-03-04 07:23:00,
2013-03-04 02:28:00,44.9,40.4,30.17,NNE,23,6.9,6.9,84,0.00,CLR,,0.00,WeatherDisplay:10.37,2013-03-04 07:28:00,
2013-03-04 02:33:00,44.8,40.3,30.17,NNE,15,4.0,4.0,84,0.00,CLR,,0.00,WeatherDisplay:10.37,2013-03-04 07:33:00,
2013-03-04 02:38:00,44.7,40.2,30.17,NNE,19,4.0,4.0,84,0.00,CLR,,0.00,WeatherDisplay:10.37,2013-03-04 07:38:00,
2013-03-04 02:44:00,44.6,40.1,30.17,NNW,340,5.0,5.0,84,0.00,CLR,,0.00,WeatherDisplay:10.37,2013-03-04 07:44:00,
2013-03-04 02:49:00,44.5,40.0,30.17,NNE,27,5.0,5.0,84,0.00,CLR,,0.00,WeatherDisplay:10.37,2013-03-04 07:49:00,
2013-03-04 02:54:00,44.4,40.2,30.17,NNE,30,4.0,4.0,85,0.00,CLR,,0.00,WeatherDisplay:10.37,2013-03-04 07:54:00,
2013-03-04 02:59:00,44.2,40.0,30.18,NE,35,4.6,4.6,85,0.00,CLR,,0.00,WeatherDisplay:10.37,2013-03-04 07:59:00,
2013-03-04 03:04:00,44.1,40.2,30.18,NNE,19,5.0,5.0,86,0.00,CLR,,0.00,WeatherDisplay:10.37,2013-03-04 08:04:00,
2013-03-04 03:09:00,43.9,39.7,30.18,NNE,21,3.5,3.5,85,0.00,CLR,,0.00,WeatherDisplay:10.37,2013-03-04 08:09:00,
2013-03-04 03:15:00,43.7,39.5,30.18,North,11,3.5,3.5,85,0.00,CLR,,0.00,WeatherDisplay:10.37,2013-03-04 08:15:00,
2013-03-04 03:20:00,43.5,39.3,30.18,NNE,18,5.0,5.0,85,0.00,CLR,,0.00,WeatherDisplay:10.37,2013-03-04 08:20:00,
2013-03-04 03:25:00,43.5,39.3,30.18,NNE,20,3.5,3.5,85,0.00,CLR,,0.00,WeatherDisplay:10.37,2013-03-04 08:25:00,
2013-03-04 03:30:00,43.4,39.2,30.18,NNE,27,5.8,5.8,85,0.00,CLR,,0.00,WeatherDisplay:10.37,2013-03-04 08:30:00,
2013-03-04 03:35:00,43.3,39.1,30.18,NNE,22,6.9,6.9,85,0.00,CLR,,0.00,WeatherDisplay:10.37,2013-03-04 08:35:00,
2013-03-04 03:40:00,43.4,39.2,30.18,NNW,328,4.6,4.6,85,0.00,CLR,,0.00,WeatherDisplay:10.37,2013-03-04 08:40:00,
2013-03-04 03:45:00,43.5,39.3,30.18,NNW,342,3.5,3.5,85,0.00,CLR,,0.00,WeatherDisplay:10.37,2013-03-04 08:45:00,
2013-03-04 03:51:00,43.6,39.4,30.18,NNE,15,3.5,3.5,85,0.00,CLR,,0.00,WeatherDisplay:10.37,2013-03-04 08:51:00,
2013-03-04 03:56:00,43.5,39.0,30.18,North,359,4.6,4.6,84,0.00,CLR,,0.00,WeatherDisplay:10.37,2013-03-04 08:56:00,
2013-03-04 04:01:00,43.4,38.9,30.19,North,8,3.5,3.5,84,0.00,CLR,,0.00,WeatherDisplay:10.37,2013-03-04 09:01:00,
2013-03-04 04:06:00,43.4,38.6,30.19,North,354,4.6,4.6,83,0.00,CLR,,0.00,WeatherDisplay:10.37,2013-03-04 09:06:00,
2013-03-04 04:11:00,43.3,38.5,30.19,NNW,340,3.5,3.5,83,0.00,CLR,,0.00,WeatherDisplay:10.37,2013-03-04 09:11:00,
2013-03-04 04:16:00,43.2,38.4,30.19,North,354,3.5,3.5,83,0.00,CLR,,0.00,WeatherDisplay:10.37,2013-03-04 09:16:00,
2013-03-04 04:22:00,43.1,38.6,30.19,NNE,15,3.5,3.5,84,0.00,CLR,,0.00,WeatherDisplay:10.37,2013-03-04 09:22:00,
2013-03-04 04:27:00,43.0,38.5,30.19,North,360,3.0,3.0,84,0.00,CLR,,0.00,WeatherDisplay:10.37,2013-03-04 09:27:00,
2013-03-04 04:32:00,43.0,38.5,30.20,NNW,332,3.5,3.5,84,0.00,CLR,,0.00,WeatherDisplay:10.37,2013-03-04 09:32:00,
2013-03-04 04:37:00,43.0,38.2,30.20,North,356,5.8,5.8,83,0.00,CLR,,0.00,WeatherDisplay:10.37,2013-03-04 09:37:00,
2013-03-04 04:43:00,43.1,38.3,30.20,NW,320,5.8,5.8,83,0.00,CLR,,0.00,WeatherDisplay:10.37,2013-03-04 09:43:00,
2013-03-04 04:48:00,43.2,38.4,30.20,NNE,31,3.5,3.5,83,0.00,CLR,,0.00,WeatherDisplay:10.37,2013-03-04 09:48:00,
2013-03-04 04:53:00,43.2,38.4,30.20,NNE,25,3.5,3.5,83,0.00,CLR,,0.00,WeatherDisplay:10.37,2013-03-04 09:53:00,
2013-03-04 04:58:00,43.1,38.3,30.20,NNE,15,4.6,4.6,83,0.00,CLR,,0.00,WeatherDisplay:10.37,2013-03-04 09:58:00,
2013-03-04 05:03:00,43.0,38.2,30.20,North,359,3.5,3.5,83,0.00,CLR,,0.00,WeatherDisplay:10.37,2013-03-04 10:03:00,
2013-03-04 05:08:00,42.9,38.1,30.20,NNW,335,4.6,4.6,83,0.00,CLR,,0.00,WeatherDisplay:10.37,2013-03-04 10:08:00,
2013-03-04 05:13:00,42.8,38.0,30.20,NNE,12,3.5,3.5,83,0.00,CLR,,0.00,WeatherDisplay:10.37,2013-03-04 10:13:00,
2013-03-04 05:18:00,42.7,37.9,30.20,NNE,18,3.5,3.5,83,0.00,CLR,,0.00,WeatherDisplay:10.37,2013-03-04 10:18:00,
2013-03-04 05:23:00,42.7,37.9,30.20,North,360,3.5,3.5,83,0.00,CLR,,0.00,WeatherDisplay:10.37,2013-03-04 10:23:00,
2013-03-04 05:28:00,42.6,37.8,30.20,NNE,17,4.0,4.0,83,0.00,CLR,,0.00,WeatherDisplay:10.37,2013-03-04 10:28:00,
2013-03-04 05:33:00,42.6,37.5,30.20,North,9,3.5,3.5,82,0.00,CLR,,0.00,WeatherDisplay:10.37,2013-03-04 10:33:00,
2013-03-04 05:38:00,42.6,37.5,30.20,North,354,3.5,3.5,82,0.00,CLR,,0.00,WeatherDisplay:10.37,2013-03-04 10:38:00,
2013-03-04 05:43:00,42.6,37.5,30.20,NNE,22,3.5,3.5,82,0.00,CLR,,0.00,WeatherDisplay:10.37,2013-03-04 10:43:00,
2013-03-04 05:48:00,42.5,37.4,30.20,NNE,33,3.5,3.5,82,0.00,CLR,,0.00,WeatherDisplay:10.37,2013-03-04 10:48:00,
2013-03-04 05:53:00,42.5,37.4,30.21,NNE,33,4.6,4.6,82,0.00,CLR,,0.00,WeatherDisplay:10.37,2013-03-04 10:53:00,
2013-03-04 05:59:00,42.4,37.3,30.21,NNE,22,3.5,3.5,82,0.00,CLR,,0.00,WeatherDisplay:10.37,2013-03-04 10:59:00,
2013-03-04 06:04:00,42.3,37.2,30.21,NNE,13,3.5,3.5,82,0.00,CLR,,0.00,WeatherDisplay:10.37,2013-03-04 11:04:00,
2013-03-04 06:09:00,42.3,37.2,30.21,NNE,21,3.5,3.5,82,0.00,CLR,,0.00,WeatherDisplay:10.37,2013-03-04 11:09:00,
2013-03-04 06:14:00,42.3,37.5,30.21,NNE,20,3.5,3.5,83,0.00,CLR,,0.00,WeatherDisplay:10.37,2013-03-04 11:14:00,
2013-03-04 06:19:00,42.3,37.5,30.21,NNE,25,3.5,3.5,83,0.00,CLR,,0.00,WeatherDisplay:10.37,2013-03-04 11:19:00,
2013-03-04 06:24:00,42.2,37.4,30.21,NNE,21,3.5,3.5,83,0.00,CLR,,0.00,WeatherDisplay:10.37,2013-03-04 11:24:00,
2013-03-04 06:29:00,42.1,37.3,30.21,NNW,340,3.5,3.5,83,0.00,CLR,,0.00,WeatherDisplay:10.37,2013-03-04 11:29:00,
2013-03-04 06:34:00,42.0,37.2,30.22,North,352,3.5,3.5,83,0.00,CLR,,0.00,WeatherDisplay:10.37,2013-03-04 11:34:00,
2013-03-04 06:40:00,41.9,37.1,30.22,North,356,3.5,3.5,83,0.00,CLR,,0.00,WeatherDisplay:10.37,2013-03-04 11:40:00,
2013-03-04 06:45:00,41.9,37.1,30.22,NNW,344,2.3,2.3,83,0.00,CLR,,0.00,WeatherDisplay:10.37,2013-03-04 11:45:00,
2013-03-04 06:50:00,41.8,37.0,30.22,North,352,4.0,4.0,83,0.00,CLR,,0.00,WeatherDisplay:10.37,2013-03-04 11:50:00,
2013-03-04 06:55:00,41.8,37.0,30.22,North,360,3.5,3.5,83,0.00,CLR,,0.00,WeatherDisplay:10.37,2013-03-04 11:55:00,
2013-03-04 07:00:00,41.9,37.1,30.23,North,352,2.3,2.3,83,0.00,CLR,,0.00,WeatherDisplay:10.37,2013-03-04 12:00:00,
2013-03-04 07:05:00,42.2,37.4,30.23,North,6,1.2,1.2,83,0.00,CLR,,0.00,WeatherDisplay:10.37,2013-03-04 12:05:00,
2013-03-04 07:10:00,42.8,38.0,30.22,North,11,3.5,3.5,83,0.00,CLR,,0.00,WeatherDisplay:10.37,2013-03-04 12:10:00,
2013-03-04 07:16:00,43.3,38.2,30.23,NNE,22,3.5,3.5,82,0.00,CLR,,0.00,WeatherDisplay:10.37,2013-03-04 12:16:00,
2013-03-04 07:21:00,43.9,38.4,30.23,NNE,29,3.5,3.5,81,0.00,CLR,,0.00,WeatherDisplay:10.37,2013-03-04 12:21:00,
2013-03-04 07:26:00,44.3,38.5,30.23,NNW,335,4.6,4.6,80,0.00,CLR,,0.00,WeatherDisplay:10.37,2013-03-04 12:26:00,
2013-03-04 07:31:00,44.7,38.6,30.23,NNE,12,3.5,3.5,79,0.00,CLR,,0.00,WeatherDisplay:10.37,2013-03-04 12:31:00,
2013-03-04 07:36:00,45.3,38.8,30.23,NNE,22,7.0,7.0,78,0.00,CLR,,0.00,WeatherDisplay:10.37,2013-03-04 12:36:00,
2013-03-04 07:41:00,45.5,38.7,30.23,NNE,18,3.5,3.5,77,0.00,CLR,,0.00,WeatherDisplay:10.37,2013-03-04 12:41:00,
2013-03-04 07:46:00,46.0,38.9,30.23,NNW,330,2.3,2.7,76,0.00,CLR,,0.00,WeatherDisplay:10.37,2013-03-04 12:46:00,
2013-03-04 07:52:00,46.4,38.9,30.23,NNE,20,8.1,8.1,75,0.00,CLR,,0.00,WeatherDisplay:10.37,2013-03-04 12:52:00,
2013-03-04 07:57:00,46.7,39.2,30.24,NNE,25,6.9,6.9,75,0.00,CLR,,0.00,WeatherDisplay:10.37,2013-03-04 12:57:00,
2013-03-04 08:02:00,47.0,39.1,30.24,North,9,4.6,4.6,74,0.00,CLR,,0.00,WeatherDisplay:10.37,2013-03-04 13:02:00,
2013-03-04 08:07:00,47.6,39.4,30.24,NNE,23,6.9,6.9,73,0.00,CLR,,0.00,WeatherDisplay:10.37,2013-03-04 13:07:00,
2013-03-04 08:12:00,47.8,39.2,30.24,North,5,6.9,6.9,72,0.00,CLR,,0.00,WeatherDisplay:10.37,2013-03-04 13:12:00,
2013-03-04 08:17:00,48.4,39.4,30.24,NE,34,9.0,9.0,71,0.00,CLR,,0.00,WeatherDisplay:10.37,2013-03-04 13:17:00,
2013-03-04 08:22:00,48.6,39.3,30.24,NNE,26,8.1,8.1,70,0.00,CLR,,0.00,WeatherDisplay:10.37,2013-03-04 13:22:00,
2013-03-04 08:27:00,49.1,39.4,30.24,NW,322,9.2,9.2,69,0.00,CLR,,0.00,WeatherDisplay:10.37,2013-03-04 13:27:00,
2013-03-04 08:32:00,49.1,39.0,30.24,NNW,334,10.4,10.4,68,0.00,CLR,,0.00,WeatherDisplay:10.37,2013-03-04 13:32:00,
2013-03-04 08:38:00,49.3,39.6,30.25,NW,325,12.7,12.7,69,0.00,CLR,,0.00,WeatherDisplay:10.37,2013-03-04 13:38:00,
2013-03-04 08:43:00,49.6,39.5,30.24,North,5,11.5,11.5,68,0.00,CLR,,0.00,WeatherDisplay:10.37,2013-03-04 13:43:00,
2013-03-04 08:48:00,50.1,40.3,30.24,NNW,338,8.1,8.1,69,0.00,CLR,,0.00,WeatherDisplay:10.37,2013-03-04 13:48:00,
2013-03-04 08:53:00,50.8,40.6,30.25,NNW,328,5.0,5.6,68,0.00,CLR,,0.00,WeatherDisplay:10.37,2013-03-04 13:53:00,
2013-03-04 08:58:00,51.2,40.6,30.25,NNW,330,9.0,9.0,67,0.00,CLR,,0.00,WeatherDisplay:10.37,2013-03-04 13:58:00,
2013-03-04 09:03:00,51.4,40.8,30.25,NNW,338,11.5,11.5,67,0.00,CLR,,0.00,WeatherDisplay:10.37,2013-03-04 14:03:00,
2013-03-04 09:08:00,51.7,41.1,30.25,NNW,330,10.4,10.4,67,0.00,CLR,,0.00,WeatherDisplay:10.37,2013-03-04 14:08:00,
2013-03-04 09:14:00,51.8,40.8,30.25,NNW,333,12.7,12.7,66,0.00,CLR,,0.00,WeatherDisplay:10.37,2013-03-04 14:14:00,
2013-03-04 09:19:00,52.0,41.0,30.25,NNW,330,8.1,8.1,66,0.00,CLR,,0.00,WeatherDisplay:10.37,2013-03-04 14:19:00,
2013-03-04 09:24:00,52.3,40.9,30.25,NNW,333,11.5,11.5,65,0.00,CLR,,0.00,WeatherDisplay:10.37,2013-03-04 14:24:00,
2013-03-04 09:29:00,52.8,41.7,30.26,NW,314,11.5,11.5,66,0.00,CLR,,0.00,WeatherDisplay:10.37,2013-03-04 14:29:00,
2013-03-04 09:35:00,53.2,41.7,30.26,North,352,10.4,10.4,65,0.00,CLR,,0.00,WeatherDisplay:10.37,2013-03-04 14:35:00,
2013-03-04 09:40:00,53.4,41.5,30.26,NNW,344,9.2,9.2,64,0.00,CLR,,0.00,WeatherDisplay:10.37,2013-03-04 14:40:00,
2013-03-04 09:45:00,53.6,42.1,30.25,North,8,9.0,9.0,65,0.00,CLR,,0.00,WeatherDisplay:10.37,2013-03-04 14:45:00,
2013-03-04 09:50:00,53.7,42.2,30.25,NNE,20,13.8,13.8,65,0.00,CLR,,0.00,WeatherDisplay:10.37,2013-03-04 14:50:00,
2013-03-04 09:55:00,53.9,42.0,30.25,NNE,29,10.4,10.4,64,0.00,CLR,,0.00,WeatherDisplay:10.37,2013-03-04 14:55:00,
2013-03-04 10:00:00,54.4,42.9,30.25,NNW,343,9.2,9.2,65,0.00,CLR,,0.00,WeatherDisplay:10.37,2013-03-04 15:00:00,
2013-03-04 10:05:00,54.8,42.9,30.25,NE,47,9.2,9.2,64,0.00,CLR,,0.00,WeatherDisplay:10.37,2013-03-04 15:05:00,
2013-03-04 10:10:00,55.3,42.9,30.25,NW,310,11.5,11.5,63,0.00,CLR,,0.00,WeatherDisplay:10.37,2013-03-04 15:10:00,
2013-03-04 10:15:00,55.4,43.0,30.24,North,352,12.7,12.7,63,0.00,CLR,,0.00,WeatherDisplay:10.37,2013-03-04 15:15:00,
2013-03-04 10:21:00,55.5,43.1,30.24,NNW,328,10.4,10.4,63,0.00,CLR,,0.00,WeatherDisplay:10.37,2013-03-04 15:21:00,
2013-03-04 10:26:00,55.8,43.4,30.24,NNW,347,11.5,11.5,63,0.00,CLR,,0.00,WeatherDisplay:10.37,2013-03-04 15:26:00,
2013-03-04 10:31:00,56.1,43.3,30.24,NW,319,10.4,10.4,62,0.00,CLR,,0.00,WeatherDisplay:10.37,2013-03-04 15:31:00,
2013-03-04 10:36:00,56.9,44.0,30.25,ENE,63,9.2,9.2,62,0.00,CLR,,0.00,WeatherDisplay:10.37,2013-03-04 15:36:00,
2013-03-04 10:41:00,57.0,43.7,30.24,NNW,339,12.7,12.7,61,0.00,CLR,,0.00,WeatherDisplay:10.37,2013-03-04 15:41:00,
2013-03-04 10:46:00,56.9,43.6,30.24,NNW,328,6.9,6.9,61,0.00,CLR,,0.00,WeatherDisplay:10.37,2013-03-04 15:46:00,
2013-03-04 10:51:00,57.1,43.8,30.24,North,7,9.2,9.2,61,0.00,CLR,,0.00,WeatherDisplay:10.37,2013-03-04 15:51:00,
2013-03-04 10:56:00,57.4,43.2,30.24,NNE,22,9.2,9.2,59,0.00,CLR,,0.00,WeatherDisplay:10.37,2013-03-04 15:56:00,
2013-03-04 11:02:00,57.5,43.7,30.24,NW,322,10.4,10.4,60,0.00,CLR,,0.00,WeatherDisplay:10.37,2013-03-04 16:02:00,
2013-03-04 11:07:00,57.8,43.6,30.24,NE,35,8.1,8.1,59,0.00,CLR,,0.00,WeatherDisplay:10.37,2013-03-04 16:07:00,
2013-03-04 11:12:00,58.0,43.3,30.24,NW,304,11.5,11.5,58,0.00,CLR,,0.00,WeatherDisplay:10.37,2013-03-04 16:12:00,
2013-03-04 11:17:00,58.2,43.9,30.24,NE,39,8.1,8.1,59,0.00,CLR,,0.00,WeatherDisplay:10.37,2013-03-04 16:17:00,
2013-03-04 11:22:00,58.3,43.1,30.24,North,360,8.1,8.1,57,0.00,CLR,,0.00,WeatherDisplay:10.37,2013-03-04 16:22:00,
2013-03-04 11:27:00,58.5,42.8,30.24,WNW,300,6.0,6.0,56,0.00,CLR,,0.00,WeatherDisplay:10.37,2013-03-04 16:27:00,
2013-03-04 11:32:00,58.9,43.2,30.24,North,356,3.5,3.5,56,0.00,CLR,,0.00,WeatherDisplay:10.37,2013-03-04 16:32:00,
2013-03-04 11:38:00,59.1,43.4,30.23,NE,34,3.5,3.5,56,0.00,CLR,,0.00,WeatherDisplay:10.37,2013-03-04 16:38:00,
2013-03-04 11:43:00,59.8,43.1,30.23,North,359,4.6,4.6,54,0.00,CLR,,0.00,WeatherDisplay:10.37,2013-03-04 16:43:00,
2013-03-04 11:48:00,60.1,42.4,30.23,NW,324,6.0,6.0,52,0.00,CLR,,0.00,WeatherDisplay:10.37,2013-03-04 16:48:00,
2013-03-04 11:54:00,60.2,42.0,30.23,NNW,336,6.9,6.9,51,0.00,CLR,,0.00,WeatherDisplay:10.37,2013-03-04 16:54:00,
2013-03-04 11:59:00,60.5,41.2,30.23,East,97,2.3,2.3,49,0.00,CLR,,0.00,WeatherDisplay:10.37,2013-03-04 16:59:00,
2013-03-04 12:04:00,61.2,41.3,30.22,NNW,330,4.6,4.6,48,0.00,CLR,,0.00,WeatherDisplay:10.37,2013-03-04 17:04:00,
2013-03-04 12:09:00,60.8,41.5,30.22,NW,325,6.9,6.9,49,0.00,CLR,,0.00,WeatherDisplay:10.37,2013-03-04 17:09:00,
2013-03-04 12:14:00,61.3,42.5,30.22,NNE,25,1.2,1.2,50,0.00,CLR,,0.00,WeatherDisplay:10.37,2013-03-04 17:14:00,
2013-03-04 12:19:00,61.7,41.8,30.21,NNW,330,6.0,6.0,48,0.00,CLR,,0.00,WeatherDisplay:10.37,2013-03-04 17:19:00,
2013-03-04 12:24:00,61.7,41.8,30.21,NNW,328,8.1,8.1,48,0.00,CLR,,0.00,WeatherDisplay:10.37,2013-03-04 17:24:00,
2013-03-04 12:29:00,62.2,41.7,30.21,WSW,252,3.5,3.5,47,0.00,CLR,,0.00,WeatherDisplay:10.37,2013-03-04 17:29:00,
2013-03-04 12:35:00,62.4,41.3,30.21,NNW,344,6.0,6.0,46,0.00,CLR,,0.00,WeatherDisplay:10.37,2013-03-04 17:35:00,
2013-03-04 12:40:00,62.9,40.6,30.21,NNW,328,6.9,6.9,44,0.00,CLR,,0.00,WeatherDisplay:10.37,2013-03-04 17:40:00,
2013-03-04 12:45:00,63.0,41.3,30.21,ENE,67,3.5,3.5,45,0.00,CLR,,0.00,WeatherDisplay:10.37,2013-03-04 17:45:00,
2013-03-04 12:50:00,63.5,41.2,30.21,NNE,26,3.5,3.5,44,0.00,CLR,,0.00,WeatherDisplay:10.37,2013-03-04 17:50:00,
2013-03-04 12:55:00,63.8,41.5,30.20,WNW,288,4.0,4.0,44,0.00,CLR,,0.00,WeatherDisplay:10.37,2013-03-04 17:55:00,
2013-03-04 13:00:00,64.1,41.7,30.20,NW,314,5.0,5.0,44,0.00,CLR,,0.00,WeatherDisplay:10.37,2013-03-04 18:00:00,
2013-03-04 13:05:00,64.2,41.2,30.20,NE,47,5.8,5.8,43,0.00,CLR,,0.00,WeatherDisplay:10.37,2013-03-04 18:05:00,
2013-03-04 13:11:00,64.3,41.3,30.19,NE,36,4.6,4.6,43,0.00,CLR,,0.00,WeatherDisplay:10.37,2013-03-04 18:11:00,
2013-03-04 13:16:00,64.5,41.5,30.19,NE,51,6.0,6.0,43,0.00,CLR,,0.00,WeatherDisplay:10.37,2013-03-04 18:16:00,
2013-03-04 13:21:00,64.4,41.4,30.19,ENE,59,3.0,3.0,43,0.00,CLR,,0.00,WeatherDisplay:10.37,2013-03-04 18:21:00,
2013-03-04 13:26:00,64.3,41.3,30.19,East,79,5.8,5.8,43,0.00,CLR,,0.00,WeatherDisplay:10.37,2013-03-04 18:26:00,
2013-03-04 13:29:00,64.3,41.3,30.19,North,4,4.6,4.6,43,0.00,CLR,,0.00,WeatherDisplay:10.37,2013-03-04 18:29:00,
2013-03-04 13:30:00,64.4,41.4,30.19,NNE,29,3.5,3.5,43,0.00,CLR,,0.00,WeatherDisplay:10.37,2013-03-04 18:30:00,
2013-03-04 13:35:00,65.2,46.1,30.18,South,181,6.9,6.9,50,0.00,CLR,,0.00,WeatherDisplay:10.37,2013-03-04 18:35:00,
2013-03-04 13:37:00,65.5,46.9,30.18,West,269,3.5,3.5,51,0.00,CLR,,0.00,WeatherDisplay:10.37,2013-03-04 18:37:00,
2013-03-04 13:43:00,66.3,47.6,30.18,SW,228,4.6,4.6,51,0.00,CLR,,0.00,WeatherDisplay:10.37,2013-03-04 18:43:00,
2013-03-04 13:48:00,66.5,46.7,30.18,SSW,200,3.5,3.5,49,0.00,CLR,,0.00,WeatherDisplay:10.37,2013-03-04 18:48:00,
2013-03-04 13:53:00,66.2,47.0,30.18,NNE,19,3.5,3.5,50,0.00,CLR,,0.00,WeatherDisplay:10.37,2013-03-04 18:53:00,
2013-03-04 13:58:00,66.7,48.0,30.18,SSW,210,5.8,5.8,51,0.00,CLR,,0.00,WeatherDisplay:10.37,2013-03-04 18:58:00,
2013-03-04 14:03:00,66.4,46.7,30.17,SSW,212,5.8,5.8,49,0.00,CLR,,0.00,WeatherDisplay:10.37,2013-03-04 19:03:00,
2013-03-04 14:08:00,66.3,46.6,30.17,WNW,294,5.8,5.8,49,0.00,CLR,,0.00,WeatherDisplay:10.37,2013-03-04 19:08:00,
2013-03-04 14:13:00,66.1,48.0,30.17,WNW,294,5.8,5.8,52,0.00,CLR,,0.00,WeatherDisplay:10.37,2013-03-04 19:13:00,
2013-03-04 14:18:00,66.2,47.5,30.17,SW,225,6.0,6.0,51,0.00,CLR,,0.00,WeatherDisplay:10.37,2013-03-04 19:18:00,
2013-03-04 14:24:00,66.3,47.1,30.17,NW,305,3.5,3.5,50,0.00,CLR,,0.00,WeatherDisplay:10.37,2013-03-04 19:24:00,
2013-03-04 14:29:00,66.6,46.8,30.17,SSW,204,6.9,6.9,49,0.00,CLR,,0.00,WeatherDisplay:10.37,2013-03-04 19:29:00,
2013-03-04 14:34:00,67.1,48.4,30.17,SSW,193,3.5,3.5,51,0.00,CLR,,0.00,WeatherDisplay:10.37,2013-03-04 19:34:00,
2013-03-04 14:39:00,67.2,47.9,30.16,SSW,201,4.0,4.0,50,0.00,CLR,,0.00,WeatherDisplay:10.37,2013-03-04 19:39:00,
2013-03-04 14:45:00,67.6,48.3,30.16,SW,230,5.0,5.0,50,0.00,CLR,,0.00,WeatherDisplay:10.37,2013-03-04 19:45:00,
2013-03-04 14:50:00,67.2,49.0,30.16,SW,218,3.5,3.5,52,0.00,CLR,,0.00,WeatherDisplay:10.37,2013-03-04 19:50:00,
2013-03-04 14:55:00,67.0,48.3,30.16,ESE,113,4.6,4.6,51,0.00,CLR,,0.00,WeatherDisplay:10.37,2013-03-04 19:55:00,
2013-03-04 15:00:00,66.7,47.5,30.16,South,190,6.9,6.9,50,0.00,CLR,,0.00,WeatherDisplay:10.37,2013-03-04 20:00:00,
2013-03-04 15:05:00,66.3,48.1,30.16,SW,221,8.1,8.1,52,0.00,CLR,,0.00,WeatherDisplay:10.37,2013-03-04 20:05:00,
2013-03-04 15:10:00,66.3,48.1,30.16,WNW,290,5.0,5.0,52,0.00,CLR,,0.00,WeatherDisplay:10.37,2013-03-04 20:10:00,
2013-03-04 15:15:00,66.9,48.7,30.16,SSW,211,6.9,6.9,52,0.00,CLR,,0.00,WeatherDisplay:10.37,2013-03-04 20:15:00,
2013-03-04 15:20:00,66.2,47.5,30.16,WSW,243,3.5,3.5,51,0.00,CLR,,0.00,WeatherDisplay:10.37,2013-03-04 20:20:00,
2013-03-04 15:25:00,65.4,47.3,30.16,South,179,6.9,6.9,52,0.00,CLR,,0.00,WeatherDisplay:10.37,2013-03-04 20:25:00,
2013-03-04 15:30:00,65.2,48.1,30.16,ESE,104,3.5,3.5,54,0.00,CLR,,0.00,WeatherDisplay:10.37,2013-03-04 20:30:00,
2013-03-04 15:35:00,65.7,48.1,30.16,SE,136,3.5,3.5,53,0.00,CLR,,0.00,WeatherDisplay:10.37,2013-03-04 20:35:00,
2013-03-04 15:41:00,64.9,47.4,30.16,NW,319,6.9,6.9,53,0.00,CLR,,0.00,WeatherDisplay:10.37,2013-03-04 20:41:00,
2013-03-04 15:46:00,64.5,47.0,30.15,SW,215,5.8,5.8,53,0.00,CLR,,0.00,WeatherDisplay:10.37,2013-03-04 20:46:00,
2013-03-04 15:51:00,64.6,47.6,30.16,NW,310,3.5,3.5,54,0.00,CLR,,0.00,WeatherDisplay:10.37,2013-03-04 20:51:00,
2013-03-04 15:56:00,64.9,47.9,30.16,SE,129,3.5,3.5,54,0.00,CLR,,0.00,WeatherDisplay:10.37,2013-03-04 20:56:00,
2013-03-04 16:01:00,65.4,48.8,30.16,West,276,2.3,2.3,55,0.00,CLR,,0.00,WeatherDisplay:10.37,2013-03-04 21:01:00,
2013-03-04 16:07:00,65.2,47.6,30.16,SSW,207,3.5,4.0,53,0.00,CLR,,0.00,WeatherDisplay:10.37,2013-03-04 21:07:00,
2013-03-04 16:12:00,65.7,47.6,30.16,NNW,342,2.3,2.3,52,0.00,CLR,,0.00,WeatherDisplay:10.37,2013-03-04 21:12:00,
2013-03-04 16:17:00,65.6,47.5,30.16,NW,325,2.3,2.3,52,0.00,CLR,,0.00,WeatherDisplay:10.37,2013-03-04 21:17:00,
2013-03-04 16:22:00,65.6,47.5,30.16,WSW,243,3.5,3.5,52,0.00,CLR,,0.00,WeatherDisplay:10.37,2013-03-04 21:22:00,
2013-03-04 16:28:00,65.4,47.8,30.16,SE,129,3.5,3.5,53,0.00,CLR,,0.00,WeatherDisplay:10.37,2013-03-04 21:28:00,
2013-03-04 16:33:00,65.6,48.0,30.16,SSW,205,5.0,5.0,53,0.00,CLR,,0.00,WeatherDisplay:10.37,2013-03-04 21:33:00,
2013-03-04 16:38:00,65.7,48.1,30.16,SSW,208,3.5,3.5,53,0.00,CLR,,0.00,WeatherDisplay:10.37,2013-03-04 21:38:00,
2013-03-04 16:43:00,65.0,47.4,30.15,SSW,194,5.8,5.8,53,0.00,CLR,,0.00,WeatherDisplay:10.37,2013-03-04 21:43:00,
2013-03-04 16:48:00,64.0,47.0,30.15,WNW,297,2.3,2.3,54,0.00,CLR,,0.00,WeatherDisplay:10.37,2013-03-04 21:48:00,
2013-03-04 16:53:00,63.7,46.7,30.15,WNW,290,3.5,3.5,54,0.00,CLR,,0.00,WeatherDisplay:10.37,2013-03-04 21:53:00,
2013-03-04 16:59:00,63.6,47.1,30.15,NW,316,1.2,1.2,55,0.00,CLR,,0.00,WeatherDisplay:10.37,2013-03-04 21:59:00,
2013-03-04 17:04:00,63.3,47.3,30.15,NW,319,3.5,3.5,56,0.00,CLR,,0.00,WeatherDisplay:10.37,2013-03-04 22:04:00,
2013-03-04 17:09:00,63.4,47.9,30.15,SE,129,1.2,0.0,57,0.00,CLR,,0.00,WeatherDisplay:10.37,2013-03-04 22:09:00,
2013-03-04 17:14:00,63.6,47.6,30.15,NNW,337,2.3,2.3,56,0.00,CLR,,0.00,WeatherDisplay:10.37,2013-03-04 22:14:00,
2013-03-04 17:19:00,63.2,47.7,30.15,WNW,285,2.3,2.3,57,0.00,CLR,,0.00,WeatherDisplay:10.37,2013-03-04 22:19:00,
2013-03-04 17:25:00,62.8,47.3,30.15,NW,312,1.2,1.2,57,0.00,CLR,,0.00,WeatherDisplay:10.37,2013-03-04 22:25:00,
2013-03-04 17:30:00,62.2,47.7,30.15,NW,316,2.3,2.3,59,0.00,CLR,,0.00,WeatherDisplay:10.37,2013-03-04 22:30:00,
2013-03-04 17:35:00,62.2,48.1,30.15,West,260,1.2,1.2,60,0.00,CLR,,0.00,WeatherDisplay:10.37,2013-03-04 22:35:00,
2013-03-04 17:40:00,62.0,48.4,30.15,ENE,60,2.3,2.3,61,0.00,CLR,,0.00,WeatherDisplay:10.37,2013-03-04 22:40:00,
2013-03-04 17:45:00,61.7,48.1,30.15,WNW,302,3.5,3.5,61,0.00,CLR,,0.00,WeatherDisplay:10.37,2013-03-04 22:45:00,
2013-03-04 17:50:00,60.9,47.8,30.15,WNW,302,3.5,3.5,62,0.00,CLR,,0.00,WeatherDisplay:10.37,2013-03-04 22:50:00,
2013-03-04 17:55:00,60.4,48.2,30.16,WNW,301,0.0,0.0,64,0.00,CLR,,0.00,WeatherDisplay:10.37,2013-03-04 22:55:00,
2013-03-04 18:00:00,60.0,48.2,30.16,SW,215,1.2,0.0,65,0.00,CLR,,0.00,WeatherDisplay:10.37,2013-03-04 23:00:00,
2013-03-04 18:06:00,59.6,48.2,30.16,WNW,302,1.2,1.2,66,0.00,CLR,,0.00,WeatherDisplay:10.37,2013-03-04 23:06:00,
2013-03-04 18:11:00,59.2,48.6,30.16,NW,319,3.5,3.5,68,0.00,CLR,,0.00,WeatherDisplay:10.37,2013-03-04 23:11:00,
2013-03-04 18:16:00,58.8,48.6,30.16,NW,308,2.3,0.0,69,0.00,CLR,,0.00,WeatherDisplay:10.37,2013-03-04 23:16:00,
2013-03-04 18:22:00,58.4,48.7,30.17,East,97,0.0,0.0,70,0.00,CLR,,0.00,WeatherDisplay:10.37,2013-03-04 23:22:00,
2013-03-04 18:27:00,57.9,48.6,30.17,WSW,240,1.2,0.0,71,0.00,CLR,,0.00,WeatherDisplay:10.37,2013-03-04 23:27:00,
2013-03-04 18:32:00,57.5,48.5,30.17,WSW,240,1.2,0.0,72,0.00,CLR,,0.00,WeatherDisplay:10.37,2013-03-04 23:32:00,
2013-03-04 18:37:00,57.1,48.2,30.17,WSW,240,0.0,0.0,72,0.00,CLR,,0.00,WeatherDisplay:10.37,2013-03-04 23:37:00,
2013-03-04 18:42:00,56.6,48.0,30.17,WSW,240,0.0,0.0,73,0.00,CLR,,0.00,WeatherDisplay:10.37,2013-03-04 23:42:00,
2013-03-04 18:47:00,56.1,47.9,30.17,WSW,240,0.0,0.0,74,0.00,CLR,,0.00,WeatherDisplay:10.37,2013-03-04 23:47:00,
2013-03-04 18:52:00,55.5,47.7,30.17,WSW,240,0.0,0.0,75,0.00,CLR,,0.00,WeatherDisplay:10.37,2013-03-04 23:52:00,
2013-03-04 18:57:00,55.2,47.8,30.17,WSW,240,0.0,0.0,76,0.00,CLR,,0.00,WeatherDisplay:10.37,2013-03-04 23:57:00,
2013-03-04 19:02:00,54.7,47.6,30.17,WSW,240,0.0,0.0,77,0.00,CLR,,0.00,WeatherDisplay:10.37,2013-03-05 00:02:00,
2013-03-04 19:08:00,54.5,48.1,30.18,SSE,150,2.3,2.3,79,0.00,CLR,,0.00,WeatherDisplay:10.37,2013-03-05 00:08:00,
2013-03-04 19:13:00,54.7,48.3,30.18,SSE,149,2.3,2.3,79,0.00,CLR,,0.00,WeatherDisplay:10.37,2013-03-05 00:13:00,
2013-03-04 19:18:00,54.6,48.6,30.18,SSE,158,2.3,2.3,80,0.00,CLR,,0.00,WeatherDisplay:10.37,2013-03-05 00:18:00,
2013-03-04 19:23:00,54.4,48.7,30.18,SSE,158,0.0,0.0,81,0.00,CLR,,0.00,WeatherDisplay:10.37,2013-03-05 00:23:00,
2013-03-04 19:28:00,54.1,48.7,30.18,SSE,158,0.0,0.0,82,0.00,CLR,,0.00,WeatherDisplay:10.37,2013-03-05 00:28:00,
2013-03-04 19:33:00,53.7,48.7,30.18,SSE,158,0.0,0.0,83,0.00,CLR,,0.00,WeatherDisplay:10.37,2013-03-05 00:33:00,
2013-03-04 19:39:00,53.4,48.4,30.18,SSE,158,0.0,0.0,83,0.00,CLR,,0.00,WeatherDisplay:10.37,2013-03-05 00:39:00,
2013-03-04 19:44:00,53.0,48.3,30.18,SSE,158,0.0,0.0,84,0.00,CLR,,0.00,WeatherDisplay:10.37,2013-03-05 00:44:00,
2013-03-04 19:49:00,52.8,48.4,30.18,SSE,158,0.0,0.0,85,0.00,CLR,,0.00,WeatherDisplay:10.37,2013-03-05 00:49:00,
2013-03-04 19:54:00,52.7,48.3,30.18,SSE,158,0.0,0.0,85,0.00,CLR,,0.00,WeatherDisplay:10.37,2013-03-05 00:54:00,
2013-03-04 19:59:00,52.3,47.9,30.18,SSE,158,0.0,0.0,85,0.00,CLR,,0.00,WeatherDisplay:10.37,2013-03-05 00:59:00,
2013-03-04 20:05:00,52.4,48.0,30.18,West,263,0.0,0.0,85,0.00,CLR,,0.00,WeatherDisplay:10.37,2013-03-05 01:05:00,
2013-03-04 20:10:00,52.4,48.3,30.19,West,263,0.0,0.0,86,0.00,CLR,,0.00,WeatherDisplay:10.37,2013-03-05 01:10:00,
2013-03-04 20:15:00,52.4,48.3,30.19,West,263,0.0,0.0,86,0.00,CLR,,0.00,WeatherDisplay:10.37,2013-03-05 01:15:00,
2013-03-04 20:20:00,52.2,48.1,30.19,West,263,0.0,0.0,86,0.00,CLR,,0.00,WeatherDisplay:10.37,2013-03-05 01:20:00,
2013-03-04 20:25:00,52.0,47.9,30.19,West,263,0.0,0.0,86,0.00,CLR,,0.00,WeatherDisplay:10.37,2013-03-05 01:25:00,
2013-03-04 20:31:00,51.7,47.6,30.20,West,263,0.0,0.0,86,0.00,CLR,,0.00,WeatherDisplay:10.37,2013-03-05 01:31:00,
2013-03-04 20:36:00,51.7,48.0,30.20,West,263,0.0,0.0,87,0.00,CLR,,0.00,WeatherDisplay:10.37,2013-03-05 01:36:00,
2013-03-04 20:41:00,52.4,48.6,30.20,West,263,1.2,0.0,87,0.00,CLR,,0.00,WeatherDisplay:10.37,2013-03-05 01:41:00,
2013-03-04 20:46:00,52.2,48.1,30.20,West,263,0.0,0.0,86,0.00,CLR,,0.00,WeatherDisplay:10.37,2013-03-05 01:46:00,
2013-03-04 20:51:00,52.0,47.9,30.20,West,263,0.0,0.0,86,0.00,CLR,,0.00,WeatherDisplay:10.37,2013-03-05 01:51:00,
2013-03-04 20:57:00,52.0,48.6,30.20,West,263,0.0,0.0,88,0.00,CLR,,0.00,WeatherDisplay:10.37,2013-03-05 01:57:00,
2013-03-04 21:02:00,52.3,48.9,30.20,West,263,0.0,0.0,88,0.00,CLR,,0.00,WeatherDisplay:10.37,2013-03-05 02:02:00,
2013-03-04 21:07:00,52.5,49.0,30.20,West,263,1.2,1.2,88,0.00,CLR,,0.00,WeatherDisplay:10.37,2013-03-05 02:07:00,
2013-03-04 21:12:00,52.8,49.0,30.20,West,263,0.0,0.0,87,0.00,CLR,,0.00,WeatherDisplay:10.37,2013-03-05 02:12:00,
2013-03-04 21:17:00,52.7,48.9,30.20,West,263,1.2,0.0,87,0.00,CLR,,0.00,WeatherDisplay:10.37,2013-03-05 02:17:00,
2013-03-04 21:23:00,52.6,49.1,30.20,West,263,0.0,0.0,88,0.00,CLR,,0.00,WeatherDisplay:10.37,2013-03-05 02:23:00,
2013-03-04 21:28:00,52.3,48.9,30.20,West,263,0.0,0.0,88,0.00,CLR,,0.00,WeatherDisplay:10.37,2013-03-05 02:28:00,
2013-03-04 21:33:00,52.0,48.6,30.20,West,263,0.0,0.0,88,0.00,CLR,,0.00,WeatherDisplay:10.37,2013-03-05 02:33:00,
2013-03-04 21:38:00,51.6,48.5,30.20,West,263,0.0,0.0,89,0.00,CLR,,0.00,WeatherDisplay:10.37,2013-03-05 02:38:00,
2013-03-04 21:43:00,51.6,48.5,30.20,West,263,0.0,0.0,89,0.00,CLR,,0.00,WeatherDisplay:10.37,2013-03-05 02:43:00,
2013-03-04 21:48:00,51.6,48.5,30.20,West,263,0.0,0.0,89,0.00,CLR,,0.00,WeatherDisplay:10.37,2013-03-05 02:48:00,
2013-03-04 21:53:00,51.3,48.2,30.20,West,263,0.0,0.0,89,0.00,CLR,,0.00,WeatherDisplay:10.37,2013-03-05 02:53:00,
2013-03-04 21:59:00,51.2,48.1,30.20,West,263,0.0,0.0,89,0.00,CLR,,0.00,WeatherDisplay:10.37,2013-03-05 02:59:00,
2013-03-04 22:04:00,51.2,48.1,30.20,West,263,1.2,1.2,89,0.00,CLR,,0.00,WeatherDisplay:10.37,2013-03-05 03:04:00,
2013-03-04 22:09:00,51.2,48.1,30.20,NW,312,1.2,1.2,89,0.00,CLR,,0.00,WeatherDisplay:10.37,2013-03-05 03:09:00,
2013-03-04 22:14:00,51.3,48.2,30.20,North,352,1.2,1.2,89,0.00,CLR,,0.00,WeatherDisplay:10.37,2013-03-05 03:14:00,
2013-03-04 22:19:00,51.6,48.5,30.20,NNE,17,2.3,2.3,89,0.00,CLR,,0.00,WeatherDisplay:10.37,2013-03-05 03:19:00,
2013-03-04 22:24:00,51.6,48.2,30.20,NNE,17,1.2,0.0,88,0.00,CLR,,0.00,WeatherDisplay:10.37,2013-03-05 03:24:00,
2013-03-04 22:30:00,51.6,48.2,30.20,NNE,15,1.2,1.2,88,0.00,CLR,,0.00,WeatherDisplay:10.37,2013-03-05 03:30:00,
2013-03-04 22:35:00,51.4,48.0,30.20,NNE,15,0.0,0.0,88,0.00,CLR,,0.00,WeatherDisplay:10.37,2013-03-05 03:35:00,
2013-03-04 22:40:00,51.4,48.0,30.20,NNW,342,2.3,2.3,88,0.00,CLR,,0.00,WeatherDisplay:10.37,2013-03-05 03:40:00,
2013-03-04 22:45:00,51.0,47.6,30.20,ENE,65,1.0,1.0,88,0.00,CLR,,0.00,WeatherDisplay:10.37,2013-03-05 03:45:00,
2013-03-04 22:51:00,50.9,47.5,30.20,NNW,346,0.0,0.0,88,0.00,CLR,,0.00,WeatherDisplay:10.37,2013-03-05 03:51:00,
2013-03-04 22:56:00,50.6,47.5,30.19,NNW,346,2.3,2.3,89,0.00,CLR,,0.00,WeatherDisplay:10.37,2013-03-05 03:56:00,
2013-03-04 23:01:00,50.4,47.3,30.20,NNW,346,1.2,0.0,89,0.00,CLR,,0.00,WeatherDisplay:10.37,2013-03-05 04:01:00,
2013-03-04 23:06:00,50.0,46.9,30.20,NNW,345,1.0,1.0,89,0.00,CLR,,0.00,WeatherDisplay:10.37,2013-03-05 04:06:00,
2013-03-04 23:11:00,49.8,46.7,30.20,NNW,346,1.2,0.0,89,0.00,CLR,,0.00,WeatherDisplay:10.37,2013-03-05 04:11:00,
2013-03-04 23:17:00,49.6,46.8,30.19,NNW,346,0.0,0.0,90,0.00,CLR,,0.00,WeatherDisplay:10.37,2013-03-05 04:17:00,
2013-03-04 23:22:00,49.4,46.6,30.20,NNW,345,0.0,0.0,90,0.00,CLR,,0.00,WeatherDisplay:10.37,2013-03-05 04:22:00,
2013-03-04 23:27:00,49.1,46.3,30.20,NNW,346,0.0,0.0,90,0.00,CLR,,0.00,WeatherDisplay:10.37,2013-03-05 04:27:00,
2013-03-04 23:32:00,48.7,45.9,30.20,NNW,345,0.0,0.0,90,0.00,CLR,,0.00,WeatherDisplay:10.37,2013-03-05 04:32:00,
2013-03-04 23:37:00,48.5,46.0,30.20,NNW,346,0.0,0.0,91,0.00,CLR,,0.00,WeatherDisplay:10.37,2013-03-05 04:37:00,
2013-03-04 23:42:00,48.4,45.9,30.20,NNW,346,0.0,0.0,91,0.00,CLR,,0.00,WeatherDisplay:10.37,2013-03-05 04:42:00,
2013-03-04 23:47:00,48.0,45.5,30.20,NNW,346,0.0,0.0,91,0.00,CLR,,0.00,WeatherDisplay:10.37,2013-03-05 04:47:00,
2013-03-04 23:52:00,47.8,45.6,30.20,NNW,346,0.0,0.0,92,0.00,CLR,,0.00,WeatherDisplay:10.37,2013-03-05 04:52:00,
2013-03-04 23:57:00,48.0,46.1,30.20,NNW,346,0.0,0.0,93,0.00,CLR,,0.00,WeatherDisplay:10.37,2013-03-05 04:57:00,